createdAt,value
2023-03-22T00:00:06.677Z,11.55
2023-03-22T00:02:33.857Z,10.95
2023-03-22T00:05:01.440Z,10.45
2023-03-22T00:07:28.586Z,11.43
2023-03-22T00:09:55.813Z,11.50
2023-03-22T00:12:22.997Z,10.63
2023-03-22T00:14:50.112Z,11.80
2023-03-22T00:17:17.375Z,11.63
2023-03-22T00:19:45.081Z,14.80
2023-03-22T00:22:14.894Z,14.20
2023-03-22T00:24:42.194Z,13.32
2023-03-22T00:27:09.466Z,14.18
2023-03-22T00:29:36.769Z,14.02
2023-03-22T00:32:04.486Z,13.13
2023-03-22T00:34:33.263Z,11.60
2023-03-22T00:37:00.652Z,11.50
2023-03-22T00:39:27.789Z,11.48
2023-03-22T00:41:55.023Z,11.20
2023-03-22T00:44:22.110Z,12.32
2023-03-22T00:46:49.224Z,10.93
2023-03-22T00:49:16.526Z,10.93
2023-03-22T00:51:43.793Z,11.57
2023-03-22T00:54:12.043Z,11.23
2023-03-22T00:56:39.247Z,12.60
2023-03-22T00:59:14.780Z,10.45
2023-03-22T01:01:43.861Z,11.63
2023-03-22T01:04:15.629Z,10.40
2023-03-22T01:06:42.861Z,11.15
2023-03-22T01:09:15.279Z,9.95
2023-03-22T01:11:44.204Z,10.10
2023-03-22T01:14:14.084Z,9.65
2023-03-22T01:16:41.397Z,9.45
2023-03-22T01:19:09.391Z,8.82
2023-03-22T01:21:36.850Z,8.90
2023-03-22T01:24:04.589Z,9.20
2023-03-22T01:26:31.867Z,9.07
2023-03-22T01:28:59.113Z,8.77
2023-03-22T01:31:26.178Z,8.32
2023-03-22T01:33:53.614Z,8.70
2023-03-22T01:36:22.779Z,8.70
2023-03-22T01:38:50.055Z,9.13
2023-03-22T01:41:17.726Z,9.38
2023-03-22T01:43:46.003Z,9.38
2023-03-22T01:46:13.272Z,10.25
2023-03-22T01:48:46.683Z,9.80
2023-03-22T01:51:22.707Z,10.38
2023-03-22T01:54:14.937Z,10.80
2023-03-22T01:56:42.825Z,11.80
2023-03-22T01:59:16.359Z,11.25
2023-03-22T02:02:04.620Z,11.35
2023-03-22T02:04:39.281Z,11.07
2023-03-22T02:07:15.685Z,10.43
2023-03-22T02:09:47.214Z,10.48
2023-03-22T02:12:42.730Z,11.48
2023-03-22T02:15:38.623Z,10.15
2023-03-22T02:18:32.157Z,10.45
2023-03-22T02:21:12.196Z,10.35
2023-03-22T02:24:07.132Z,9.18
2023-03-22T02:27:26.581Z,8.25
2023-03-22T02:30:37.224Z,8.20
2023-03-22T02:33:23.594Z,7.70
2023-03-22T02:35:59.634Z,7.70
2023-03-22T02:38:49.713Z,8.02
2023-03-22T02:41:31.663Z,7.38
2023-03-22T02:44:04.548Z,7.60
2023-03-22T02:46:59.792Z,7.40
2023-03-22T02:49:37.810Z,7.88
2023-03-22T02:52:17.609Z,7.45
2023-03-22T02:54:51.665Z,7.90
2023-03-22T02:57:42.892Z,7.57
2023-03-22T03:00:14.211Z,7.35
2023-03-22T03:02:45.805Z,7.45
2023-03-22T03:05:15.203Z,7.43
2023-03-22T03:07:48.612Z,8.05
2023-03-22T03:10:19.465Z,7.70
2023-03-22T03:12:47.042Z,7.82
2023-03-22T03:15:20.723Z,8.15
2023-03-22T03:17:53.685Z,8.15
2023-03-22T03:23:31.501Z,8.07
2023-03-22T03:26:04.455Z,8.55
2023-03-22T03:28:51.635Z,7.95
2023-03-22T03:31:31.904Z,8.82
2023-03-22T03:34:09.966Z,8.55
2023-03-22T03:36:40.356Z,8.77
2023-03-22T03:39:12.326Z,9.38
2023-03-22T03:41:42.542Z,8.85
2023-03-22T03:44:10.327Z,9.07
2023-03-22T03:46:38.088Z,9.00
2023-03-22T03:49:07.878Z,8.80
2023-03-22T03:51:47.645Z,7.60
2023-03-22T03:54:15.597Z,7.30
2023-03-22T03:56:42.737Z,7.03
2023-03-22T03:59:10.034Z,7.35
2023-03-22T04:01:37.530Z,7.38
2023-03-22T04:04:15.486Z,7.43
2023-03-22T04:06:54.407Z,6.85
2023-03-22T04:09:27.126Z,7.05
2023-03-22T04:11:59.121Z,7.10
2023-03-22T04:14:26.985Z,7.38
2023-03-22T04:16:57.116Z,7.68
2023-03-22T04:19:26.219Z,6.72
2023-03-22T04:21:53.717Z,6.82
2023-03-22T04:24:22.363Z,6.78
2023-03-22T04:26:52.867Z,6.35
2023-03-22T04:29:24.928Z,7.10
2023-03-22T04:32:00.545Z,7.15
2023-03-22T04:34:37.044Z,7.10
2023-03-22T04:37:09.755Z,7.60
2023-03-22T04:39:41.430Z,7.05
2023-03-22T04:42:28.902Z,6.97
2023-03-22T04:45:12.712Z,7.53
2023-03-22T04:47:41.754Z,7.30
2023-03-22T04:50:09.526Z,7.78
2023-03-22T04:52:45.635Z,7.00
2023-03-22T04:55:12.758Z,6.78
2023-03-22T04:57:40.964Z,6.60
2023-03-22T05:00:10.117Z,7.30
2023-03-22T05:02:41.467Z,7.10
2023-03-22T05:05:16.961Z,7.65
2023-03-22T05:07:45.905Z,7.80
2023-03-22T05:10:13.052Z,7.93
2023-03-22T05:12:41.309Z,8.23
2023-03-22T05:15:39.298Z,8.13
2023-03-22T05:18:08.248Z,7.78
2023-03-22T05:20:37.810Z,7.78
2023-03-22T05:23:19.416Z,6.97
2023-03-22T05:25:52.036Z,6.63
2023-03-22T05:28:21.564Z,22.67
2023-03-22T05:31:18.404Z,9.10
2023-03-22T05:33:52.592Z,7.88
2023-03-22T05:36:23.762Z,8.77
2023-03-22T05:39:09.426Z,7.95
2023-03-22T05:41:37.103Z,7.40
2023-03-22T05:44:05.508Z,7.25
2023-03-22T05:46:34.315Z,7.50
2023-03-22T05:49:20.040Z,6.82
2023-03-22T05:51:47.844Z,6.85
2023-03-22T05:54:16.711Z,7.10
2023-03-22T05:56:49.771Z,6.65
2023-03-22T05:59:17.022Z,6.60
2023-03-22T06:01:44.870Z,6.97
2023-03-22T06:04:22.239Z,6.78
2023-03-22T06:06:57.450Z,6.50
2023-03-22T06:09:43.448Z,6.40
2023-03-22T06:12:16.365Z,7.30
2023-03-22T06:14:48.543Z,7.57
2023-03-22T06:17:35.821Z,7.75
2023-03-22T06:20:11.622Z,8.32
2023-03-22T06:22:41.883Z,7.80
2023-03-22T06:25:10.352Z,6.10
2023-03-22T06:30:09.981Z,6.57
2023-03-22T06:32:55.141Z,6.40
2023-03-22T06:35:22.488Z,5.43
2023-03-22T06:37:49.970Z,6.28
2023-03-22T06:40:17.520Z,5.65
2023-03-22T06:42:46.444Z,6.03
2023-03-22T06:45:18.155Z,6.30
2023-03-22T06:47:46.615Z,4.93
2023-03-22T06:50:28.935Z,5.93
2023-03-22T06:53:04.275Z,5.72
2023-03-22T06:55:35.044Z,5.90
2023-03-22T06:58:11.549Z,6.47
2023-03-22T07:00:39.472Z,7.30
2023-03-22T07:03:08.258Z,6.78
2023-03-22T07:05:41.886Z,6.30
2023-03-22T07:08:11.261Z,6.90
2023-03-22T07:10:49.575Z,4.93
2023-03-22T07:13:16.914Z,5.50
2023-03-22T07:15:44.942Z,4.47
2023-03-22T07:18:24.734Z,5.15
2023-03-22T07:20:52.400Z,4.95
2023-03-22T07:23:20.033Z,4.85
2023-03-22T07:25:52.260Z,5.18
2023-03-22T07:28:24.640Z,4.55
2023-03-22T07:31:12.656Z,3.78
2023-03-22T07:34:06.768Z,3.97
2023-03-22T07:36:50.089Z,5.03
2023-03-22T07:39:17.240Z,4.70
2023-03-22T07:41:47.830Z,5.00
2023-03-22T07:44:25.929Z,5.88
2023-03-22T07:47:27.180Z,6.82
2023-03-22T07:50:13.432Z,6.80
2023-03-22T07:52:42.881Z,7.90
2023-03-22T07:55:14.761Z,7.38
2023-03-22T07:57:42.610Z,7.57
2023-03-22T08:00:13.287Z,8.27
2023-03-22T08:02:46.486Z,7.50
2023-03-22T08:05:33.619Z,7.85
2023-03-22T08:08:02.655Z,7.30
2023-03-22T08:10:29.727Z,7.38
2023-03-22T08:12:56.855Z,6.22
2023-03-22T08:15:26.593Z,6.63
2023-03-22T08:17:58.033Z,7.22
2023-03-22T08:20:39.431Z,6.13
2023-03-22T08:23:16.107Z,6.18
2023-03-22T08:26:02.112Z,5.88
2023-03-22T08:28:30.719Z,6.18
2023-03-22T08:30:57.739Z,7.35
2023-03-22T08:33:25.700Z,6.07
2023-03-22T08:35:53.329Z,6.15
2023-03-22T08:38:20.742Z,6.53
2023-03-22T08:40:52.167Z,6.90
2023-03-22T08:43:23.746Z,6.50
2023-03-22T08:45:51.863Z,6.90
2023-03-22T08:48:21.150Z,7.72
2023-03-22T08:51:03.098Z,7.32
2023-03-22T08:53:40.529Z,9.25
2023-03-22T08:56:40.065Z,6.93
2023-03-22T08:59:20.600Z,9.05
2023-03-22T09:02:10.995Z,7.35
2023-03-22T09:04:38.332Z,5.93
2023-03-22T09:07:05.526Z,6.35
2023-03-22T09:09:32.961Z,6.53
2023-03-22T09:12:00.212Z,10.63
2023-03-22T09:14:27.529Z,6.80
2023-03-22T09:16:55.263Z,5.43
2023-03-22T09:19:22.778Z,7.18
2023-03-22T09:21:50.234Z,6.00
2023-03-22T09:24:28.508Z,5.50
2023-03-22T09:26:59.406Z,4.82
2023-03-22T09:29:26.590Z,4.47
2023-03-22T09:31:53.770Z,3.90
2023-03-22T09:34:28.639Z,4.60
2023-03-22T09:36:58.694Z,4.93
2023-03-22T09:39:30.334Z,4.05
2023-03-22T09:42:07.508Z,4.15
2023-03-22T09:44:40.746Z,4.30
2023-03-22T09:47:21.851Z,4.38
2023-03-22T09:49:56.893Z,4.95
2023-03-22T09:52:24.070Z,4.22
2023-03-22T09:54:53.029Z,4.50
2023-03-22T09:57:35.515Z,4.38
2023-03-22T10:00:15.798Z,4.28
2023-03-22T10:02:45.949Z,4.63
2023-03-22T10:05:23.689Z,6.50
2023-03-22T10:08:15.668Z,4.03
2023-03-22T10:10:43.483Z,4.65
2023-03-22T10:13:20.378Z,6.22
2023-03-22T10:15:51.790Z,4.82
2023-03-22T10:18:47.392Z,4.70
2023-03-22T10:21:17.559Z,3.80
2023-03-22T10:24:09.425Z,4.85
2023-03-22T10:26:42.228Z,4.63
2023-03-22T10:29:19.343Z,4.00
2023-03-22T10:31:46.690Z,4.28
2023-03-22T10:34:22.875Z,4.90
2023-03-22T10:36:53.780Z,5.13
2023-03-22T10:39:30.242Z,4.63
2023-03-22T10:42:11.885Z,4.35
2023-03-22T10:45:08.781Z,4.28
2023-03-22T10:47:42.504Z,4.55
2023-03-22T10:50:17.525Z,4.25
2023-03-22T10:53:08.633Z,4.95
2023-03-22T10:55:44.154Z,4.70
2023-03-22T10:58:19.673Z,4.45
2023-03-22T11:01:08.841Z,4.20
2023-03-22T11:03:36.642Z,4.38
2023-03-22T11:06:14.308Z,4.72
2023-03-22T11:08:52.573Z,4.63
2023-03-22T11:11:36.074Z,3.75
2023-03-22T11:16:50.964Z,4.43
2023-03-22T11:19:26.984Z,4.22
2023-03-22T11:21:59.529Z,4.75
2023-03-22T11:24:28.552Z,4.15
2023-03-22T11:27:23.053Z,4.40
2023-03-22T11:29:52.989Z,4.35
2023-03-22T11:32:36.749Z,4.53
2023-03-22T11:35:21.335Z,4.35
2023-03-22T11:37:51.485Z,4.80
2023-03-22T11:40:23.858Z,4.28
2023-03-22T11:42:57.237Z,4.20
2023-03-22T11:45:29.845Z,4.80
2023-03-22T11:48:10.064Z,4.45
2023-03-22T11:50:40.273Z,4.60
2023-03-22T11:53:12.591Z,3.90
2023-03-22T11:55:39.994Z,4.65
2023-03-22T11:58:07.359Z,4.65
2023-03-22T12:00:37.926Z,4.20
2023-03-22T12:03:17.423Z,4.32
2023-03-22T12:05:49.180Z,5.15
2023-03-22T12:08:24.076Z,4.20
2023-03-22T12:11:02.918Z,4.15
2023-03-22T12:13:46.160Z,4.50
2023-03-22T12:16:18.127Z,3.92
2023-03-22T12:18:51.945Z,4.10
2023-03-22T12:21:19.757Z,4.40
2023-03-22T12:23:46.867Z,4.03
2023-03-22T12:26:21.993Z,4.55
2023-03-22T12:29:18.451Z,3.63
2023-03-22T12:32:28.845Z,4.43
2023-03-22T12:35:05.413Z,4.00
2023-03-22T12:37:45.011Z,4.88
2023-03-22T12:40:22.237Z,4.18
2023-03-22T12:43:01.216Z,4.60
2023-03-22T12:45:31.993Z,4.57
2023-03-22T12:48:21.998Z,3.95
2023-03-22T12:50:57.025Z,4.50
2023-03-22T12:53:28.789Z,3.55
2023-03-22T12:55:56.550Z,4.72
2023-03-22T12:58:26.740Z,4.40
2023-03-22T13:01:11.319Z,4.05
2023-03-22T13:03:52.353Z,4.07
2023-03-22T13:06:35.338Z,4.90
2023-03-22T13:09:18.133Z,4.82
2023-03-22T13:12:09.484Z,4.30
2023-03-22T13:14:59.503Z,4.20
2023-03-22T13:17:27.627Z,5.10
2023-03-22T13:20:13.728Z,4.70
2023-03-22T13:22:43.866Z,5.50
2023-03-22T13:25:13.964Z,4.47
2023-03-22T13:27:57.626Z,4.88
2023-03-22T13:30:35.760Z,4.30
2023-03-22T13:33:14.357Z,4.07
2023-03-22T13:35:51.428Z,5.10
2023-03-22T13:38:30.165Z,4.45
2023-03-22T13:41:06.006Z,4.72
2023-03-22T13:43:39.164Z,4.90
2023-03-22T13:48:48.051Z,4.80
2023-03-22T13:51:31.194Z,4.70
2023-03-22T13:54:14.280Z,5.40
2023-03-22T13:56:42.062Z,5.18
2023-03-22T13:59:20.306Z,4.50
2023-03-22T14:02:24.463Z,4.78
2023-03-22T14:07:44.411Z,5.10
2023-03-22T14:10:40.955Z,5.20
2023-03-22T14:13:33.359Z,5.30
2023-03-22T14:16:18.667Z,4.75
2023-03-22T14:18:49.487Z,5.13
2023-03-22T14:21:22.831Z,5.22
